Time;durP1;ratioP1;P1;durP2;ratioP2;P2;SDS_P1;SDS_P2;PMS_P1;PMS_P2;Temp;Humidity;BMP_temperature;BMP_pressure;BME280_temperature;BME280_humidity;BME280_pressure;Samples;Min_cycle;Max_cycle;Signal;HPM_P1;HPM_P2
2024/01/09 00:00:06;;;;;;;;;;;;;;;22.35;26.97;103494.56;5045300;28;19913;-75
2024/01/09 00:02:31;;;;;;;;;;;;;;;22.33;26.74;103485.69;5045688;28;20098;-75
2024/01/09 00:04:56;;;;;;;;;;;;;;;22.32;27.12;103494.81;5048225;28;19922;-74
2024/01/09 00:07:21;;;;;;;;;;;;;;;22.32;26.91;103491.22;5045062;28;19917;-75
2024/01/09 00:09:47;;;;;;;;;;;;;;;22.34;26.79;103483.81;5036036;28;20007;-75
2024/01/09 00:12:13;;;;;;;;;;;;;;;22.32;26.87;103483.09;5043818;28;19913;-75
2024/01/09 00:14:38;;;;;;;;;;;;;;;22.31;27.12;103487.66;5055821;28;19920;-74
2024/01/09 00:17:03;;;;;;;;;;;;;;;22.27;26.95;103480.78;5041594;28;19928;-75
2024/01/09 00:19:28;;;;;;;;;;;;;;;22.26;26.98;103478.19;5047316;28;19917;-75
2024/01/09 00:21:55;;;;;;;;;;;;;;;22.25;26.88;103476.47;5046752;28;19971;-74
2024/01/09 00:24:20;;;;;;;;;;;;;;;22.26;27.13;103470.94;5037514;28;19917;-74
2024/01/09 00:26:46;;;;;;;;;;;;;;;22.26;26.77;103475.47;5038936;28;19917;-75
2024/01/09 00:29:11;;;;;;;;;;;;;;;22.24;26.79;103461.22;5056710;28;19920;-74
2024/01/09 00:31:36;;;;;;;;;;;;;;;22.22;27.07;103472.19;5052752;28;19913;-75
2024/01/09 00:34:02;;;;;;;;;;;;;;;22.21;27.01;103470.44;5041315;28;19925;-74
2024/01/09 00:36:27;;;;;;;;;;;;;;;22.23;26.97;103467.63;5042992;28;19928;-73
2024/01/09 00:38:52;;;;;;;;;;;;;;;22.22;27.11;103469.47;5042975;28;19958;-75
2024/01/09 00:41:17;;;;;;;;;;;;;;;22.23;26.72;103467.63;5040356;28;20116;-74
2024/01/09 00:43:43;;;;;;;;;;;;;;;22.21;26.96;103465.88;5040168;28;20371;-74
2024/01/09 00:46:08;;;;;;;;;;;;;;;22.22;26.67;103464.06;5052658;28;20331;-74
2024/01/09 00:48:33;;;;;;;;;;;;;;;22.24;27.09;103472.03;5047852;28;19921;-74
2024/01/09 00:50:59;;;;;;;;;;;;;;;22.23;26.79;103479.31;5038355;28;19914;-74
2024/01/09 00:53:24;;;;;;;;;;;;;;;22.23;26.82;103473.91;5040977;28;19913;-74
2024/01/09 00:55:49;;;;;;;;;;;;;;;22.21;26.81;103474.00;5041440;28;19920;-74
2024/01/09 00:58:14;;;;;;;;;;;;;;;22.20;26.82;103474.16;5040935;28;19952;-75
2024/01/09 01:00:39;;;;;;;;;;;;;;;22.20;27.02;103466.88;5046280;28;19955;-74
2024/01/09 01:03:04;;;;;;;;;;;;;;;22.21;26.93;103465.88;5052131;28;19923;-74
2024/01/09 01:05:30;;;;;;;;;;;;;;;22.20;26.67;103464.16;5045940;28;19988;-74
2024/01/09 01:07:55;;;;;;;;;;;;;;;22.17;27.11;103460.84;5036685;28;20596;-75
2024/01/09 01:10:20;;;;;;;;;;;;;;;22.15;26.80;103458.28;5042791;28;19949;-75
2024/01/09 01:12:45;;;;;;;;;;;;;;;22.14;27.11;103467.41;5044189;28;19981;-74
2024/01/09 01:15:11;;;;;;;;;;;;;;;22.13;27.17;103464.81;5047456;28;19913;-74
2024/01/09 01:17:36;;;;;;;;;;;;;;;22.11;26.92;103459.50;5049922;28;19914;-74
2024/01/09 01:20:02;;;;;;;;;;;;;;;22.11;26.99;103462.19;5049322;28;19913;-75
2024/01/09 01:22:27;;;;;;;;;;;;;;;22.09;27.23;103469.59;5039715;28;19921;-75
2024/01/09 01:24:52;;;;;;;;;;;;;;;22.11;27.18;103467.63;5038129;28;19945;-75
2024/01/09 01:27:17;;;;;;;;;;;;;;;22.10;27.07;103462.34;5045298;28;19918;-75
2024/01/09 01:29:43;;;;;;;;;;;;;;;22.09;27.10;103471.44;5047449;28;19963;-74
2024/01/09 01:32:10;;;;;;;;;;;;;;;22.07;26.95;103473.41;5046197;28;19924;-75
2024/01/09 01:34:35;;;;;;;;;;;;;;;22.06;27.25;103474.41;5044339;28;19924;-75
2024/01/09 01:37:00;;;;;;;;;;;;;;;22.07;26.82;103476.13;5046245;28;19917;-75
2024/01/09 01:39:26;;;;;;;;;;;;;;;22.05;27.17;103473.56;5050408;28;19952;-74
2024/01/09 01:41:51;;;;;;;;;;;;;;;22.05;26.87;103467.28;5044345;28;19913;-75
2024/01/09 01:44:17;;;;;;;;;;;;;;;22.04;27.05;103471.81;5048232;28;19948;-74
2024/01/09 01:46:42;;;;;;;;;;;;;;;21.55;27.15;103399.19;5048971;28;19914;-75
2024/01/09 01:49:07;;;;;;;;;;;;;;;22.04;27.21;103471.81;5038832;28;19919;-76
2024/01/09 01:51:32;;;;;;;;;;;;;;;22.02;27.15;103473.81;5044096;28;19924;-74
2024/01/09 01:53:58;;;;;;;;;;;;;;;22.02;27.02;103471.09;5058724;28;19914;-74
2024/01/09 01:56:23;;;;;;;;;;;;;;;22.01;27.12;103468.53;5047197;28;19953;-74
2024/01/09 01:58:48;;;;;;;;;;;;;;;22.02;27.12;103465.69;5047648;28;20456;-75
2024/01/09 02:01:13;;;;;;;;;;;;;;;22.04;26.99;103468.25;5050509;28;19921;-75
2024/01/09 02:03:38;;;;;;;;;;;;;;;22.01;27.01;103468.53;5043867;28;19933;-74
2024/01/09 02:06:04;;;;;;;;;;;;;;;22.00;27.06;103462.22;5037656;28;19939;-74
2024/01/09 02:08:29;;;;;;;;;;;;;;;22.00;26.92;103464.94;5056547;28;19944;-75
2024/01/09 02:10:54;;;;;;;;;;;;;;;22.01;26.96;103465.81;5056444;28;19918;-74
2024/01/09 02:13:19;;;;;;;;;;;;;;;22.01;27.04;103463.09;5046588;28;19909;-75
2024/01/09 02:15:44;;;;;;;;;;;;;;;21.99;27.13;103465.91;5043834;28;19968;-75
2024/01/09 02:18:09;;;;;;;;;;;;;;;;;;5047538;28;19917;-75
2024/01/09 02:20:35;;;;;;;;;;;;;;;21.96;27.03;103471.59;5041367;28;19917;-74
2024/01/09 02:23:00;;;;;;;;;;;;;;;21.96;26.81;103475.19;5046320;28;19963;-72
2024/01/09 02:25:25;;;;;;;;;;;;;;;21.98;26.96;103479.59;5058147;28;19920;-75
2024/01/09 02:27:51;;;;;;;;;;;;;;;21.94;26.85;103479.84;5051636;28;20410;-75
2024/01/09 02:30:16;;;;;;;;;;;;;;;21.94;26.84;103484.41;5040720;28;19935;-75
2024/01/09 02:32:41;;;;;;;;;;;;;;;21.94;26.97;103479.84;5045170;28;19948;-74
2024/01/09 02:35:06;;;;;;;;;;;;;;;21.93;26.90;103474.56;5043088;28;19964;-74
2024/01/09 02:37:32;;;;;;;;;;;;;;;21.91;26.92;103474.69;5038688;28;20370;-74
2024/01/09 02:39:57;;;;;;;;;;;;;;;21.90;27.06;103477.53;5047459;28;19920;-75
2024/01/09 02:42:22;;;;;;;;;;;;;;;21.89;26.88;103470.41;5052789;28;19925;-74
2024/01/09 02:44:48;;;;;;;;;;;;;;;21.88;27.08;103469.53;5047647;28;19913;-75
2024/01/09 02:47:13;;;;;;;;;;;;;;;21.89;27.15;103468.53;5038465;28;19921;-74
2024/01/09 02:49:39;;;;;;;;;;;;;;;21.89;26.86;103463.13;5039183;28;19912;-74
2024/01/09 02:52:04;;;;;;;;;;;;;;;21.91;27.13;103471.97;5039315;28;19948;-73
2024/01/09 02:54:29;;;;;;;;;;;;;;;21.87;27.17;103467.78;5040446;28;19948;-74
2024/01/09 02:56:54;;;;;;;;;;;;;;;21.89;26.91;103468.53;5050080;28;19917;-74
2024/01/09 02:59:19;;;;;;;;;;;;;;;21.89;27.07;103478.53;5050770;28;19921;-74
2024/01/09 03:01:45;;;;;;;;;;;;;;;21.86;27.06;103474.19;5042388;28;20515;-76
2024/01/09 03:04:10;;;;;;;;;;;;;;;21.83;26.85;103482.56;5036154;28;19993;-76
2024/01/09 03:06:35;;;;;;;;;;;;;;;21.84;26.82;103484.31;5038364;28;19917;-76
2024/01/09 03:09:00;;;;;;;;;;;;;;;21.83;26.93;103476.28;5043490;28;19905;-77
2024/01/09 03:11:25;;;;;;;;;;;;;;;21.80;27.18;103479.28;5044950;28;19919;-75
2024/01/09 03:13:51;;;;;;;;;;;;;;;21.80;26.90;103482.84;5045388;28;19924;-74
2024/01/09 03:16:16;;;;;;;;;;;;;;;21.79;27.09;103485.66;5045432;28;19913;-75
2024/01/09 03:18:41;;;;;;;;;;;;;;;21.79;26.86;103485.66;5050216;28;19964;-74
2024/01/09 03:21:06;;;;;;;;;;;;;;;21.79;27.19;103491.97;5040794;28;19917;-74
2024/01/09 03:23:32;;;;;;;;;;;;;;;21.79;27.19;103483.84;5039974;28;19924;-74
2024/01/09 03:25:57;;;;;;;;;;;;;;;21.76;27.17;103488.63;5040962;28;19932;-74
2024/01/09 03:28:22;;;;;;;;;;;;;;;21.77;27.03;103484.94;5041033;28;19917;-75
2024/01/09 03:30:47;;;;;;;;;;;;;;;21.75;27.15;103484.19;5041841;28;19927;-75
2024/01/09 03:33:12;;;;;;;;;;;;;;;21.77;27.07;103485.78;5051790;28;19943;-75
2024/01/09 03:35:38;;;;;;;;;;;;;;;21.77;27.16;103482.22;5051730;28;19972;-74
2024/01/09 03:38:03;;;;;;;;;;;;;;;21.77;27.17;103484.94;5040144;28;19914;-74
2024/01/09 03:40:28;;;;;;;;;;;;;;;21.78;26.92;103473.97;5045801;28;20263;-74
2024/01/09 03:42:54;;;;;;;;;;;;;;;21.78;26.92;103476.69;5043782;28;19928;-73
2024/01/09 03:45:19;;;;;;;;;;;;;;;21.76;26.93;103472.41;5039074;28;19924;-74
2024/01/09 03:47:44;;;;;;;;;;;;;;;21.76;26.91;103473.25;5050546;28;19955;-74
2024/01/09 03:50:09;;;;;;;;;;;;;;;21.77;27.07;103474.97;5055640;28;20357;-74
2024/01/09 03:52:34;;;;;;;;;;;;;;;21.75;26.87;103468.81;5046881;28;19984;-74
2024/01/09 03:55:00;;;;;;;;;;;;;;;21.67;27.18;103457.75;5045748;28;19914;-74
2024/01/09 03:57:25;;;;;;;;;;;;;;;21.72;27.12;103469.06;5044321;28;19917;-74
2024/01/09 03:59:50;;;;;;;;;;;;;;;21.73;26.84;103459.09;5038748;28;19924;-75
2024/01/09 04:02:15;;;;;;;;;;;;;;;21.71;27.03;103456.53;5054749;28;19995;-77
2024/01/09 04:04:40;;;;;;;;;;;;;;;21.68;26.86;103457.63;5056271;28;19928;-74
2024/01/09 04:07:06;;;;;;;;;;;;;;;21.68;26.80;103459.47;5050570;28;19917;-74
2024/01/09 04:09:31;;;;;;;;;;;;;;;21.69;27.12;103458.47;5043914;28;19921;-74
2024/01/09 04:11:56;;;;;;;;;;;;;;;21.65;26.86;103459.72;5044352;28;19922;-75
2024/01/09 04:14:21;;;;;;;;;;;;;;;21.64;27.09;103460.72;5042033;28;19913;-74
2024/01/09 04:16:47;;;;;;;;;;;;;;;21.65;26.94;103448.88;5038859;28;19920;-74
2024/01/09 04:19:12;;;;;;;;;;;;;;;21.64;26.95;103452.59;5050735;28;19913;-75
2024/01/09 04:21:37;;;;;;;;;;;;;;;21.66;27.13;103458.72;5052060;28;19919;-74
2024/01/09 04:24:02;;;;;;;;;;;;;;;21.68;26.92;103459.47;5045902;28;20008;-74
2024/01/09 04:26:28;;;;;;;;;;;;;;;21.66;26.74;103456.00;5039064;28;19913;-75
2024/01/09 04:28:53;;;;;;;;;;;;;;;21.64;26.83;103458.84;5041739;28;20410;-75
2024/01/09 04:31:18;;;;;;;;;;;;;;;21.66;26.71;103458.72;5034870;28;19968;-74
2024/01/09 04:33:43;;;;;;;;;;;;;;;21.64;26.74;103458.00;5041337;28;19949;-73
2024/01/09 04:36:13;;;;;;;;;;;;;;;21.63;27.01;103459.84;5048537;28;19921;-74
2024/01/09 04:38:38;;;;;;;;;;;;;;;21.63;26.77;103461.69;5050714;28;20362;-75
2024/01/09 04:41:04;;;;;;;;;;;;;;;21.62;26.73;103457.25;5045104;28;19917;-74
2024/01/09 04:43:29;;;;;;;;;;;;;;;21.59;27.03;103461.09;5038599;28;19941;-74
2024/01/09 04:45:54;;;;;;;;;;;;;;;21.58;27.00;103455.78;5039184;28;20008;-73
2024/01/09 04:48:19;;;;;;;;;;;;;;;21.56;27.04;103461.31;5041492;28;19917;-74
2024/01/09 04:50:45;;;;;;;;;;;;;;;21.57;26.79;103463.03;5046403;28;19913;-74
2024/01/09 04:53:10;;;;;;;;;;;;;;;21.54;26.98;103455.19;5048690;28;19953;-74
2024/01/09 04:55:35;;;;;;;;;;;;;;;21.52;26.86;103459.00;5048121;28;19939;-73
2024/01/09 04:58:00;;;;;;;;;;;;;;;21.52;27.08;103465.25;5043483;28;19920;-75
2024/01/09 05:00:25;;;;;;;;;;;;;;;21.52;26.86;103467.13;5044293;28;20405;-74
2024/01/09 05:02:53;;;;;;;;;;;;;;;21.51;27.05;103463.56;5041854;28;20005;-74
2024/01/09 05:05:18;;;;;;;;;;;;;;;21.49;26.99;103461.94;5041368;28;19928;-74
2024/01/09 05:07:43;;;;;;;;;;;;;;;21.47;26.84;103472.91;5046194;28;19917;-74
2024/01/09 05:10:08;;;;;;;;;;;;;;;21.45;27.14;103470.31;5046686;28;19913;-74
2024/01/09 05:12:33;;;;;;;;;;;;;;;21.45;26.98;103469.44;5050629;28;19917;-73
2024/01/09 05:14:59;;;;;;;;;;;;;;;21.42;27.15;103465.16;5053715;28;19919;-74
2024/01/09 05:17:24;;;;;;;;;;;;;;;21.39;27.10;103465.38;5044998;28;19921;-74
2024/01/09 05:19:49;;;;;;;;;;;;;;;21.37;27.09;103464.66;5045230;28;19913;-74
2024/01/09 05:22:14;;;;;;;;;;;;;;;21.37;27.13;103466.53;5046738;28;19956;-74
2024/01/09 05:24:39;;;;;;;;;;;;;;;21.36;27.15;103475.59;5039985;28;19914;-73
2024/01/09 05:27:04;;;;;;;;;;;;;;;21.35;26.97;103469.31;5050472;28;19913;-75
2024/01/09 05:29:30;;;;;;;;;;;;;;;21.34;27.18;103473.03;5056871;28;20369;-74
2024/01/09 05:31:55;;;;;;;;;;;;;;;21.34;26.90;103470.31;5050905;28;19996;-75
2024/01/09 05:34:20;;;;;;;;;;;;;;;21.34;27.22;103474.88;5044110;28;19924;-76
2024/01/09 05:36:45;;;;;;;;;;;;;;;21.31;26.99;103467.81;5046704;28;19913;-74
2024/01/09 05:39:10;;;;;;;;;;;;;;;21.32;26.91;103469.56;5040795;28;19909;-73
2024/01/09 05:41:35;;;;;;;;;;;;;;;21.32;26.98;103474.13;5046128;28;19913;-73
2024/01/09 05:44:01;;;;;;;;;;;;;;;21.33;27.20;103476.72;5058113;28;19964;-74
2024/01/09 05:46:26;;;;;;;;;;;;;;;21.29;26.92;103468.94;5054777;28;19917;-73
2024/01/09 05:48:51;;;;;;;;;;;;;;;21.29;26.94;103471.66;5044840;28;20567;-74
2024/01/09 05:51:16;;;;;;;;;;;;;;;21.26;27.00;103474.59;5043766;28;19915;-75
2024/01/09 05:53:41;;;;;;;;;;;;;;;21.26;27.02;103472.75;5046014;28;19976;-77
2024/01/09 05:56:07;;;;;;;;;;;;;;;21.29;27.18;103483.34;5045320;28;19921;-75
2024/01/09 05:58:33;;;;;;;;;;;;;;;21.26;27.13;103480.84;5053961;28;19989;-75
2024/01/09 06:00:58;;;;;;;;;;;;;;;21.23;26.91;103476.53;5045663;28;19913;-73
2024/01/09 06:03:24;;;;;;;;;;;;;;;21.21;27.19;103483.94;5048702;28;20902;-73
2024/01/09 06:05:49;;;;;;;;;;;;;;;21.20;27.04;103478.66;5040450;28;20281;-75
2024/01/09 06:08:14;;;;;;;;;;;;;;;21.17;27.45;103490.56;5039789;28;19918;-73
2024/01/09 06:10:39;;;;;;;;;;;;;;;21.17;27.29;103487.88;5036933;28;19913;-72
2024/01/09 06:13:05;;;;;;;;;;;;;;;21.19;27.50;103491.28;5044944;28;19936;-73
2024/01/09 06:15:30;;;;;;;;;;;;;;;21.16;27.65;103490.69;5050876;28;19917;-73
2024/01/09 06:17:55;;;;;;;;;;;;;;;21.15;27.59;103492.53;5053536;28;19920;-74
2024/01/09 06:20:20;;;;;;;;;;;;;;;21.15;27.73;103494.38;5044156;28;19956;-72
2024/01/09 06:22:45;;;;;;;;;;;;;;;21.17;27.63;103492.41;5035246;28;19929;-75
2024/01/09 06:25:13;;;;;;;;;;;;;;;21.15;27.70;103487.13;5034110;28;19917;-75
2024/01/09 06:27:38;;;;;;;;;;;;;;;21.15;27.57;103495.25;5035888;28;20008;-73
2024/01/09 06:30:04;;;;;;;;;;;;;;;21.15;27.58;103497.06;5045885;28;20297;-75
2024/01/09 06:32:29;;;;;;;;;;;;;;;21.14;27.71;103504.31;5049497;28;19947;-74
2024/01/09 06:34:55;;;;;;;;;;;;;;;21.13;27.64;103504.47;5049099;28;19917;-75
2024/01/09 06:37:20;;;;;;;;;;;;;;;21.12;27.70;103509.00;5039646;28;19921;-74
2024/01/09 06:39:45;;;;;;;;;;;;;;;21.12;27.89;103517.13;5045080;28;19917;-73
2024/01/09 06:42:10;;;;;;;;;;;;;;;21.10;27.91;103512.81;5036091;28;19933;-75
2024/01/09 06:44:35;;;;;;;;;;;;;;;21.10;27.87;103515.50;5040783;28;19940;-79
2024/01/09 06:47:01;;;;;;;;;;;;;;;21.12;27.85;103524.38;5042809;28;19924;-77
2024/01/09 06:49:26;;;;;;;;;;;;;;;21.12;27.90;103522.53;5045001;28;20378;-74
2024/01/09 06:51:53;;;;;;;;;;;;;;;21.10;27.89;103529.91;5045853;28;19921;-73
2024/01/09 06:54:18;;;;;;;;;;;;;;;21.10;27.92;103532.59;5050906;28;19928;-74
2024/01/09 06:56:44;;;;;;;;;;;;;;;21.09;27.81;103536.28;5043927;28;19952;-73
2024/01/09 06:59:09;;;;;;;;;;;;;;;21.09;27.78;103530.03;5038195;28;19913;-73
2024/01/09 07:01:35;;;;;;;;;;;;;;;21.06;27.80;103525.69;5039455;28;19913;-73
2024/01/09 07:04:00;;;;;;;;;;;;;;;21.06;27.85;103523.00;5041900;28;19944;-73
2024/01/09 07:06:26;;;;;;;;;;;;;;;21.05;27.80;103521.28;5042383;28;19917;-73
2024/01/09 07:08:53;;;;;;;;;;;;;;;21.07;27.75;103527.44;5049988;28;20217;-72
2024/01/09 07:11:18;;;;;;;;;;;;;;;21.06;27.88;103522.13;5050361;28;19917;-74
2024/01/09 07:13:43;;;;;;;;;;;;;;;21.06;27.56;103522.13;5039077;28;19913;-75
2024/01/09 07:16:08;;;;;;;;;;;;;;;21.06;27.66;103525.69;5042484;28;19940;-74
2024/01/09 07:18:33;;;;;;;;;;;;;;;21.07;27.50;103524.75;5037471;28;19923;-74
2024/01/09 07:20:59;;;;;;;;;;;;;;;21.09;27.84;103530.88;5040542;28;19913;-71
2024/01/09 07:23:24;;;;;;;;;;;;;;;21.11;27.74;103533.47;5050976;28;19924;-76
2024/01/09 07:25:49;;;;;;;;;;;;;;;21.09;27.68;103530.03;5048872;28;20375;-75
2024/01/09 07:28:15;;;;;;;;;;;;;;;21.05;27.97;103524.00;5036329;28;19968;-76
2024/01/09 07:30:40;;;;;;;;;;;;;;;20.99;27.89;103521.78;5034895;28;19914;-77
2024/01/09 07:33:05;;;;;;;;;;;;;;;20.95;28.15;103531.97;5037633;28;20490;-76
2024/01/09 07:35:34;;;;;;;;;;;;;;;20.90;27.90;103531.47;5040971;28;19917;-76
2024/01/09 07:37:59;;;;;;;;;;;;;;;20.89;28.29;103526.16;5032003;28;19996;-76
2024/01/09 07:40:24;;;;;;;;;;;;;;;20.86;28.23;103526.41;5039069;28;19965;-78
2024/01/09 07:42:49;;;;;;;;;;;;;;;20.84;28.19;103536.47;5048398;28;19952;-78
2024/01/09 07:45:15;;;;;;;;;;;;;;;20.82;27.94;103523.06;5039618;28;19920;-78
2024/01/09 07:47:40;;;;;;;;;;;;;;;20.80;28.06;103545.78;5034883;28;19942;-75
2024/01/09 07:50:05;;;;;;;;;;;;;;;20.75;28.38;103543.44;5042073;28;19980;-78
2024/01/09 07:52:31;;;;;;;;;;;;;;;20.76;28.40;103544.31;5046821;28;19913;-76
2024/01/09 07:54:56;;;;;;;;;;;;;;;20.77;28.23;103543.31;5050425;28;19923;-76
2024/01/09 07:57:22;;;;;;;;;;;;;;;20.77;27.95;103546.88;5048761;28;20528;-76
2024/01/09 07:59:47;;;;;;;;;;;;;;;20.75;28.02;103545.28;5042038;28;19924;-77
2024/01/09 08:02:12;;;;;;;;;;;;;;;20.75;28.17;103550.69;5033052;28;19917;-78
2024/01/09 08:04:39;;;;;;;;;;;;;;;20.76;27.85;103547.00;5030572;28;20027;-78
2024/01/09 08:07:04;;;;;;;;;;;;;;;20.79;27.89;103544.06;5038721;28;19952;-78
2024/01/09 08:09:29;;;;;;;;;;;;;;;20.80;27.84;103535.84;5046024;28;19916;-77
2024/01/09 08:11:55;;;;;;;;;;;;;;;20.79;28.09;103534.13;5034788;28;19917;-78
2024/01/09 08:14:20;;;;;;;;;;;;;;;20.78;27.72;103548.63;5041135;28;19952;-78
2024/01/09 08:16:45;;;;;;;;;;;;;;;20.80;27.94;103551.19;5039279;28;19920;-76
2024/01/09 08:19:10;;;;;;;;;;;;;;;20.79;28.10;103544.06;5040133;28;19929;-76
2024/01/09 08:21:35;;;;;;;;;;;;;;;20.81;27.72;103553.78;5032470;28;19917;-76
2024/01/09 08:24:01;;;;;;;;;;;;;;;20.81;27.87;103547.50;5034003;28;19920;-78
2024/01/09 08:26:26;;;;;;;;;;;;;;;20.82;27.78;103546.56;5042241;28;19912;-78
2024/01/09 08:28:51;;;;;;;;;;;;;;;20.83;27.93;103553.69;5040725;28;19988;-78
2024/01/09 08:31:17;;;;;;;;;;;;;;;20.83;27.75;103548.28;5037798;28;19917;-78
2024/01/09 08:33:42;;;;;;;;;;;;;;;20.84;27.77;103542.72;5044153;28;19921;-79
2024/01/09 08:36:07;;;;;;;;;;;;;;;20.83;27.84;103548.28;5042792;28;19913;-77
2024/01/09 08:38:32;;;;;;;;;;;;;;;20.82;27.78;103549.25;5032925;28;19925;-77
2024/01/09 08:40:58;;;;;;;;;;;;;;;20.86;27.82;103550.75;5038537;28;19942;-75
2024/01/09 08:43:23;;;;;;;;;;;;;;;20.85;27.76;103562.53;5030519;28;19921;-77
2024/01/09 08:45:51;;;;;;;;;;;;;;;20.85;27.75;103562.53;5033449;28;19921;-78
2024/01/09 08:48:17;;;;;;;;;;;;;;;20.84;27.31;103556.25;5041062;28;19913;-76
2024/01/09 08:50:42;;;;;;;;;;;;;;;20.83;27.63;103554.53;5042776;28;19945;-78
2024/01/09 08:53:08;;;;;;;;;;;;;;;20.84;27.27;103558.09;5044416;28;19920;-77
2024/01/09 08:55:33;;;;;;;;;;;;;;;20.83;27.62;103557.25;5036080;28;19913;-74
2024/01/09 08:57:59;;;;;;;;;;;;;;;20.83;27.40;103559.94;5034076;28;19935;-78
2024/01/09 09:00:24;;;;;;;;;;;;;;;20.82;27.41;103557.38;5030671;28;19913;-75
2024/01/09 09:02:50;;;;;;;;;;;;;;;20.82;27.09;103560.06;5028575;28;19939;-75
2024/01/09 09:05:16;;;;;;;;;;;;;;;20.83;27.33;103562.66;5041886;28;19948;-76
2024/01/09 09:07:41;;;;;;;;;;;;;;;20.83;27.34;103561.78;5039710;28;19917;-76
2024/01/09 09:10:06;;;;;;;;;;;;;;;20.87;27.23;103563.28;5036857;28;19917;-78
2024/01/09 09:12:32;;;;;;;;;;;;;;;20.86;27.24;103562.44;5030370;28;20001;-78
2024/01/09 09:14:57;;;;;;;;;;;;;;;20.89;27.36;103567.56;5027649;28;19924;-77
2024/01/09 09:17:23;;;;;;;;;;;;;;;20.91;26.85;103565.63;5039437;28;19927;-76
2024/01/09 09:19:48;;;;;;;;;;;;;;;20.93;26.99;103562.78;5044546;28;19917;-77
2024/01/09 09:22:13;;;;;;;;;;;;;;;20.92;26.82;103567.34;5034031;28;19923;-76
2024/01/09 09:24:38;;;;;;;;;;;;;;;20.91;27.05;103562.06;5047369;28;19921;-75
2024/01/09 09:27:04;;;;;;;;;;;;;;;20.89;27.12;103569.41;5040996;28;19916;-77
2024/01/09 09:29:29;;;;;;;;;;;;;;;20.90;26.89;103569.31;5034070;28;19917;-75
2024/01/09 09:31:54;;;;;;;;;;;;;;;20.91;27.18;103560.22;5043794;28;19994;-76
2024/01/09 09:34:20;;;;;;;;;;;;;;;20.94;27.04;103565.41;5039855;28;19959;-76
2024/01/09 09:36:45;;;;;;;;;;;;;;;20.93;27.10;103558.25;5035030;28;19913;-76
2024/01/09 09:39:10;;;;;;;;;;;;;;;20.93;27.04;103550.13;5042377;28;19988;-76
2024/01/09 09:41:36;;;;;;;;;;;;;;;20.95;26.87;103550.03;5043607;28;19924;-75
2024/01/09 09:44:03;;;;;;;;;;;;;;;20.95;26.93;103553.59;5038059;28;20008;-77
2024/01/09 09:46:30;;;;;;;;;;;;;;;20.97;27.14;103550.75;5037478;28;19917;-77
2024/01/09 09:48:55;;;;;;;;;;;;;;;20.97;27.05;103556.19;5033954;28;20432;-77
2024/01/09 09:51:21;;;;;;;;;;;;;;;20.98;26.96;103557.88;5039818;28;20003;-76
2024/01/09 09:53:46;;;;;;;;;;;;;;;20.99;26.74;103553.38;5040762;28;19963;-75
2024/01/09 09:56:13;;;;;;;;;;;;;;;20.97;26.82;103551.63;5043324;28;19917;-77
2024/01/09 09:58:38;;;;;;;;;;;;;;;20.97;26.73;103548.06;5047404;28;20058;-77
2024/01/09 10:01:03;;;;;;;;;;;;;;;20.97;27.10;103553.47;5038064;28;19918;-77
2024/01/09 10:03:32;;;;;;;;;;;;;;;20.99;27.01;103551.53;5026674;28;19959;-77
2024/01/09 10:05:57;;;;;;;;;;;;;;;21.01;26.77;103557.66;5036685;28;20297;-77
2024/01/09 10:08:22;;;;;;;;;;;;;;;21.01;26.97;103537.88;5037594;28;19917;-76
2024/01/09 10:10:48;;;;;;;;;;;;;;;21.03;26.83;103546.75;5034142;28;19917;-77
2024/01/09 10:13:13;;;;;;;;;;;;;;;21.05;26.96;103550.19;5039048;28;19914;-77
2024/01/09 10:15:57;;;;;;;;;;;;;;;21.09;27.04;103544.41;5041911;28;20370;-78
2024/01/09 10:18:22;;;;;;;;;;;;;;;21.12;27.18;103540.63;5029905;28;19921;-76
2024/01/09 10:20:48;;;;;;;;;;;;;;;21.15;26.65;103527.72;5038991;28;19932;-75
2024/01/09 10:23:13;;;;;;;;;;;;;;;21.20;26.72;103533.63;5040926;28;19921;-77
2024/01/09 10:25:38;;;;;;;;;;;;;;;21.23;27.00;103527.94;5034653;28;19924;-77
2024/01/09 10:28:05;;;;;;;;;;;;;;;21.27;27.13;103527.72;5039665;28;19929;-77
2024/01/09 10:30:30;;;;;;;;;;;;;;;21.29;26.93;103515.81;5045032;28;19917;-77
2024/01/09 10:32:55;;;;;;;;;;;;;;;21.29;26.79;103515.81;5044529;28;19917;-77
2024/01/09 10:35:21;;;;;;;;;;;;;;;21.35;26.79;103517.19;5038310;28;19924;-77
2024/01/09 10:37:46;;;;;;;;;;;;;;;21.36;26.96;103517.06;5031719;28;19921;-77
2024/01/09 10:40:11;;;;;;;;;;;;;;;21.39;26.96;103513.25;5032943;28;20731;-76
2024/01/09 10:42:47;;;;;;;;;;;;;;;21.43;27.09;103512.03;5042269;28;19928;-76
2024/01/09 10:45:12;;;;;;;;;;;;;;;21.48;26.70;103512.50;5043626;28;20491;-77
2024/01/09 10:47:37;;;;;;;;;;;;;;;21.50;26.89;103505.16;5045209;28;19917;-77
2024/01/09 10:50:02;;;;;;;;;;;;;;;21.53;26.45;103504.88;5029121;28;19917;-77
2024/01/09 10:52:29;;;;;;;;;;;;;;;21.56;26.60;103503.78;5034514;28;20052;-77
2024/01/09 10:54:54;;;;;;;;;;;;;;;21.61;26.52;103510.53;5031732;28;19917;-75
2024/01/09 10:57:19;;;;;;;;;;;;;;;21.66;26.55;103502.94;5040241;28;20617;-77
2024/01/09 10:59:44;;;;;;;;;;;;;;;21.69;26.70;103501.81;5040621;28;20429;-77
2024/01/09 11:02:22;;;;;;;;;;;;;;;21.72;26.46;103501.56;5048680;28;19995;-78
2024/01/09 11:04:47;;;;;;;;;;;;;;;21.75;26.17;103495.91;5040308;28;19925;-77
2024/01/09 11:07:14;;;;;;;;;;;;;;;21.78;26.34;103486.66;5033944;28;19928;-77
2024/01/09 11:09:40;;;;;;;;;;;;;;;21.79;26.24;103488.38;5033896;28;19913;-77
2024/01/09 11:12:05;;;;;;;;;;;;;;;21.80;26.46;103492.81;5040939;28;19913;-76
2024/01/09 11:14:31;;;;;;;;;;;;;;;21.82;26.54;103486.28;5044062;28;19925;-77
2024/01/09 11:16:56;;;;;;;;;;;;;;;21.85;26.25;103482.47;5035955;28;19918;-77
2024/01/09 11:19:21;;;;;;;;;;;;;;;21.89;26.44;103482.09;5039666;28;19952;-77
2024/01/09 11:21:47;;;;;;;;;;;;;;;21.94;26.25;103473.56;5040618;28;19917;-77
2024/01/09 11:24:12;;;;;;;;;;;;;;;21.98;26.31;103471.47;5032383;28;19914;-77
2024/01/09 11:26:38;;;;;;;;;;;;;;;22.03;26.18;103467.38;5035617;28;19981;-78
2024/01/09 11:29:04;;;;;;;;;;;;;;;22.08;25.95;103470.56;5033639;28;19924;-79
2024/01/09 11:31:30;;;;;;;;;;;;;;;22.15;26.16;103463.69;5034156;28;19913;-78
2024/01/09 11:33:56;;;;;;;;;;;;;;;22.22;26.15;103461.34;5044492;28;19917;-76
2024/01/09 11:36:27;;;;;;;;;;;;;;;22.30;26.19;103466.09;5042234;28;19949;-74
2024/01/09 11:38:53;;;;;;;;;;;;;;;22.40;25.73;103465.19;5048534;28;19956;-73
2024/01/09 11:41:19;;;;;;;;;;;;;;;22.44;25.77;103447.69;5033623;28;19920;-74
2024/01/09 11:44:04;;;;;;;;;;;;;;;22.56;25.81;103458.50;5029220;28;19925;-74
2024/01/09 11:46:31;;;;;;;;;;;;;;;22.60;25.95;103460.81;5036190;28;20389;-74
2024/01/09 11:48:56;;;;;;;;;;;;;;;22.61;26.09;103454.38;5041285;28;19921;-74
2024/01/09 11:51:22;;;;;;;;;;;;;;;22.70;25.77;103441.88;5037079;28;19960;-76
2024/01/09 11:53:47;;;;;;;;;;;;;;;22.80;26.05;103447.34;5042032;28;19960;-75
2024/01/09 11:56:13;;;;;;;;;;;;;;;22.84;26.53;103446.09;5042712;28;19947;-75
2024/01/09 11:58:39;;;;;;;;;;;;;;;22.85;26.16;103450.53;5037649;28;19917;-76
2024/01/09 12:01:04;;;;;;;;;;;;;;;22.82;26.00;103438.09;5038534;28;19964;-75
2024/01/09 12:03:29;;;;;;;;;;;;;;;22.85;25.84;103437.84;5041998;28;19925;-77
2024/01/09 12:05:55;;;;;;;;;;;;;;;22.84;26.21;103441.53;5031764;28;19921;-77
2024/01/09 12:08:20;;;;;;;;;;;;;;;22.79;26.42;103438.38;5037244;28;20337;-77
2024/01/09 12:10:47;;;;;;;;;;;;;;;22.76;26.42;103440.47;5044217;28;20008;-75
2024/01/09 12:13:15;;;;;;;;;;;;;;;22.77;26.43;103434.06;5036762;28;19913;-78
2024/01/09 12:15:40;;;;;;;;;;;;;;;22.76;26.41;103427.78;5034417;28;19924;-76
2024/01/09 12:18:06;;;;;;;;;;;;;;;22.75;26.29;103426.06;5038532;28;19902;-76
2024/01/09 12:20:31;;;;;;;;;;;;;;;22.77;26.77;103429.53;5031656;28;19914;-77
2024/01/09 12:22:57;;;;;;;;;;;;;;;22.73;26.57;103419.94;5044892;28;19928;-77
2024/01/09 12:25:22;;;;;;;;;;;;;;;22.68;26.64;103419.44;5045806;28;19920;-78
2024/01/09 12:27:47;;;;;;;;;;;;;;;22.66;26.56;103411.44;5036912;28;19935;-78